Limerick, Ireland

10:56 AM GMT on February 25, 2017 (GMT +0000)
Shannon | | Change Station

Elev 66 ft 52.70 °N, 8.92 °W | Updated 26 minutes ago

Light Drizzle
Light Drizzle
52 °F
Feels Like 52 °F
N
15
Wind Variable Wind from SW

Today
High -- | Low -- °F
--% Chance of Precip.
Yesterday
High -- | Low -- °F
Precip. -- in
Pressure 29.56 in
Visibility 1.9 miles
Clouds Few 400 ft
Mostly Cloudy 1000 ft
Overcast 2000 ft
Dew Point 50 °F
Humidity 94%
Rainfall 0.00 in
Snow Depth Not available.
7:30 AM 6:07 PM
Waning Crescent, 2% visible
METAR EINN 251030Z 22013KT 3000 -DZ FEW004 BKN010 OVC020 11/10 Q1001 NOSIG
Pressure 29.56 in
Visibility 1.9 miles
Clouds Few 400 ft
Mostly Cloudy 1000 ft
Overcast 2000 ft
Dew Point 50 °F
Humidity 94%
Rainfall 0.00 in
Snow Depth Not available.
7:30 AM 6:07 PM
Waning Crescent, 2% visible
METAR EINN 251030Z 22013KT 3000 -DZ FEW004 BKN010 OVC020 11/10 Q1001 NOSIG

Get Your Daily Forecast Email!

Thanks for signing up!

Be on the lookout for a verification email in your inbox.

You'll start receiving the daily forecast at 8 AM.

×

10-Day Weather Forecast

×

Almanac

Astronomy

Feb. 25, 2017 Rise Set
Actual Time
Civil Twilight
Nautical Twilight
Astronomical Twilight
Moon
Length of Visible Light
Length of Day
Tomorrow will be .
, % of the Moon is Illuminated

Today's Extremes

Country Highs Country Lows

Community

WunderPhotos

Upload Photos

1,962,540 photos uploaded!

WunderBlog® & News

Nearby

Air Quality

  Air Quality AQ Index Pollutant
Not available.

Snow Depth

Station Depth Elevation

Earthquake Activity

City Distance Mag. Time & Date
Minimum magnitude displayed is 2.5.

Coastal Water Temperatures

Place Temperature

Stations

Nearby Weather Stations

Station Location Temp. Windchill Dew Point Humidity Wind Precip. Elev Updated Type